MUVR/VRA METAR and TAF weather

Enter ICAO airport designator
Station Type Date Time Source
MUVR METAR 2019/05/27 08:50 UTC NOAA

MUVR 270850Z 11005KT 9000 FEW030 22/21 Q1016


Station Type Date Time Source
MUVR Decoded METAR 2019/05/27 08:50 UTC NOAA

Varadero, Matanzas, Cuba (MUVR) 23-08N 081-17W 3M
May 27, 2019 - 04:50 AM EDT / 2019.05.27 0850 UTC
Wind: from the ESE (110 degrees) at 6 MPH (5 KT):0
Visibility: 5 mile(s):0
Sky conditions: mostly clear
Temperature: 71 F (22 C)
Dew Point: 69 F (21 C)
Relative Humidity: 94%
Pressure (altimeter): 30.00 in. Hg (1016 hPa)
ob: MUVR 270850Z 11005KT 9000 FEW030 22/21 Q1016
cycle: 9

Station Type Date Time Source
MUVR TAF 2019/05/27 06:03 UTC NOAA

TAF MUVR 270500Z 2706/2806 VRB03KT 9000 SCT020
BECMG 2715/2717 06012KT
BECMG 2802/2804 VRB03KT

Example: see airport list